createdAt,value
2023-01-22T00:00:30.858Z,0.05
2023-01-22T00:01:30.949Z,0.07
2023-01-22T00:02:31.088Z,0.07
2023-01-22T00:03:31.174Z,0.07
2023-01-22T00:04:31.197Z,0.07
2023-01-22T00:05:31.273Z,0.05
2023-01-22T00:06:31.348Z,0.07
2023-01-22T00:07:31.446Z,0.07
2023-01-22T00:08:31.523Z,0.12
2023-01-22T00:09:31.611Z,0.10
2023-01-22T00:10:31.687Z,0.12
2023-01-22T00:11:31.794Z,0.13
2023-01-22T00:12:31.852Z,0.10
2023-01-22T00:13:31.988Z,0.13
2023-01-22T00:14:32.099Z,0.13
2023-01-22T00:15:32.130Z,0.13
2023-01-22T00:16:32.179Z,0.15
2023-01-22T00:17:32.262Z,0.15
2023-01-22T00:18:32.349Z,0.16
2023-01-22T00:19:32.426Z,0.16
2023-01-22T00:20:32.508Z,0.15
2023-01-22T00:21:32.625Z,0.13
2023-01-22T00:22:32.704Z,0.13
2023-01-22T00:23:32.791Z,0.13
2023-01-22T00:24:32.834Z,0.12
2023-01-22T00:25:32.926Z,0.12
2023-01-22T00:26:33.003Z,0.12
2023-01-22T00:27:33.079Z,0.15
2023-01-22T00:28:33.167Z,0.16
2023-01-22T00:29:33.238Z,0.16
2023-01-22T00:30:33.324Z,0.17
2023-01-22T00:31:33.476Z,0.17
2023-01-22T00:32:33.451Z,0.22
2023-01-22T00:33:33.544Z,0.20
2023-01-22T00:34:33.578Z,0.22
2023-01-22T00:35:33.676Z,0.20
2023-01-22T00:36:33.768Z,0.19
2023-01-22T00:37:33.839Z,0.20
2023-01-22T00:38:33.944Z,0.19
2023-01-22T00:39:34.016Z,0.20
2023-01-22T00:40:34.094Z,0.19
2023-01-22T00:41:34.171Z,0.19
2023-01-22T00:42:34.246Z,0.16
2023-01-22T00:43:34.361Z,0.17
2023-01-22T00:44:34.423Z,0.17
2023-01-22T00:45:34.482Z,0.19
2023-01-22T00:46:34.650Z,0.17
2023-01-22T00:47:34.675Z,0.17
2023-01-22T00:48:34.751Z,0.19
2023-01-22T00:49:34.817Z,0.19
2023-01-22T00:50:34.902Z,0.22
2023-01-22T00:51:34.974Z,0.20
2023-01-22T00:52:35.055Z,0.20
2023-01-22T00:53:35.159Z,0.19
2023-01-22T00:54:35.205Z,0.17
2023-01-22T00:55:35.287Z,0.19
2023-01-22T00:56:35.362Z,0.19
2023-01-22T00:57:35.425Z,0.22
2023-01-22T00:58:35.527Z,0.22
2023-01-22T00:59:35.608Z,0.22
2023-01-22T01:00:35.693Z,0.22
2023-01-22T01:01:35.802Z,0.25
2023-01-22T01:02:35.822Z,0.26
2023-01-22T01:03:35.906Z,0.26
2023-01-22T01:04:35.958Z,0.26
2023-01-22T01:05:36.053Z,0.25
2023-01-22T01:06:36.132Z,0.23
2023-01-22T01:07:36.217Z,0.25
2023-01-22T01:08:36.444Z,0.25
2023-01-22T01:09:36.395Z,0.25
2023-01-22T01:10:36.491Z,0.25
2023-01-22T01:11:36.564Z,0.28
2023-01-22T01:12:36.640Z,0.25
2023-01-22T01:13:36.725Z,0.25
2023-01-22T01:14:36.767Z,0.30
2023-01-22T01:15:36.872Z,0.25
2023-01-22T01:16:36.964Z,0.23
2023-01-22T01:17:37.055Z,0.25
2023-01-22T01:18:37.159Z,0.33
2023-01-22T01:19:37.226Z,0.35
2023-01-22T01:20:37.311Z,0.40
2023-01-22T01:21:37.408Z,0.40
2023-01-22T01:22:37.490Z,0.40
2023-01-22T01:23:37.572Z,0.43
2023-01-22T01:24:37.619Z,0.38
2023-01-22T01:25:37.689Z,0.41
2023-01-22T01:26:37.791Z,0.44
2023-01-22T01:27:37.858Z,0.45
2023-01-22T01:28:37.952Z,0.45
2023-01-22T01:29:38.028Z,0.45
2023-01-22T01:30:38.130Z,0.44
2023-01-22T01:31:38.203Z,0.45
2023-01-22T01:32:38.273Z,0.57
2023-01-22T01:33:38.382Z,0.56
2023-01-22T01:34:38.451Z,0.56
2023-01-22T01:35:38.547Z,0.59
2023-01-22T01:36:54.033Z,0.62
2023-01-22T01:37:38.731Z,0.64
2023-01-22T01:38:38.825Z,0.67
2023-01-22T01:39:38.914Z,0.63
2023-01-22T01:40:38.999Z,0.63
2023-01-22T01:41:39.071Z,0.60
2023-01-22T01:42:39.148Z,0.62
2023-01-22T01:43:39.240Z,0.62
2023-01-22T01:44:39.291Z,0.62
2023-01-22T01:45:39.358Z,0.62
2023-01-22T01:46:39.548Z,0.63
2023-01-22T01:47:39.537Z,0.63
2023-01-22T01:48:39.643Z,0.62
2023-01-22T01:49:39.709Z,0.63
2023-01-22T01:50:39.781Z,0.63
2023-01-22T01:51:39.863Z,0.63
2023-01-22T01:52:39.927Z,0.63
2023-01-22T01:53:40.030Z,0.62
2023-01-22T01:54:40.072Z,0.63
2023-01-22T01:55:40.143Z,0.64
2023-01-22T01:56:40.225Z,0.63
2023-01-22T01:57:40.421Z,0.62
2023-01-22T01:58:40.406Z,0.60
2023-01-22T01:59:40.459Z,0.60
2023-01-22T02:00:40.578Z,0.60
2023-01-22T02:01:40.709Z,0.60
2023-01-22T02:02:40.702Z,0.53
2023-01-22T02:03:40.785Z,0.53
2023-01-22T02:04:40.832Z,0.53
2023-01-22T02:05:40.895Z,0.56
2023-01-22T02:06:40.979Z,0.52
2023-01-22T02:07:41.054Z,0.53
2023-01-22T02:08:41.155Z,0.49
2023-01-22T02:09:41.222Z,0.51
2023-01-22T02:10:41.301Z,0.52
2023-01-22T02:11:41.375Z,0.53
2023-01-22T02:12:41.442Z,0.53
2023-01-22T02:13:41.604Z,0.53
2023-01-22T02:14:41.628Z,0.53
2023-01-22T02:15:41.695Z,0.56
2023-01-22T02:16:41.808Z,0.56
2023-01-22T02:17:41.862Z,0.56
2023-01-22T02:18:41.968Z,0.57
2023-01-22T02:19:42.043Z,0.56
2023-01-22T02:20:42.118Z,0.53
2023-01-22T02:21:42.211Z,0.53
2023-01-22T02:22:42.266Z,0.52
2023-01-22T02:23:42.351Z,0.52
2023-01-22T02:24:42.395Z,0.52
2023-01-22T02:25:42.471Z,0.53
2023-01-22T02:26:42.543Z,0.57
2023-01-22T02:27:42.634Z,0.52
2023-01-22T02:28:42.740Z,0.51
2023-01-22T02:29:42.818Z,0.52
2023-01-22T02:30:42.901Z,0.57
2023-01-22T02:31:43.033Z,0.60
2023-01-22T02:32:43.058Z,0.63
2023-01-22T02:33:43.150Z,0.60
2023-01-22T02:34:43.197Z,0.59
2023-01-22T02:35:43.275Z,0.67
2023-01-22T02:36:43.348Z,0.68
2023-01-22T02:37:43.422Z,0.64
2023-01-22T02:38:43.519Z,0.62
2023-01-22T02:39:43.602Z,0.60
2023-01-22T02:40:43.686Z,0.62
2023-01-22T02:41:43.791Z,0.59
2023-01-22T02:42:43.871Z,0.64
2023-01-22T02:43:43.969Z,0.60
2023-01-22T02:44:43.994Z,0.62
2023-01-22T02:45:44.134Z,0.62
2023-01-22T02:46:44.161Z,0.60
2023-01-22T02:47:44.255Z,0.62
2023-01-22T02:48:44.345Z,0.60
2023-01-22T02:49:44.414Z,0.59
2023-01-22T02:50:44.495Z,0.59
2023-01-22T02:51:44.568Z,0.57
2023-01-22T02:52:44.647Z,0.57
2023-01-22T02:53:44.732Z,0.57
2023-01-22T02:54:44.777Z,0.56
2023-01-22T02:55:44.855Z,0.56
2023-01-22T02:56:44.920Z,0.56
2023-01-22T02:57:45.010Z,0.53
2023-01-22T02:58:45.094Z,0.59
2023-01-22T02:59:45.167Z,0.59
2023-01-22T03:00:45.251Z,0.57
2023-01-22T03:01:45.347Z,0.56
2023-01-22T03:02:45.423Z,0.53
2023-01-22T03:03:45.517Z,0.53
2023-01-22T03:04:45.582Z,0.53
2023-01-22T03:05:45.692Z,0.53
2023-01-22T03:06:45.776Z,0.51
2023-01-22T03:07:45.879Z,0.51
2023-01-22T03:08:45.938Z,0.51
2023-01-22T03:09:46.027Z,0.51
2023-01-22T03:10:46.091Z,0.51
2023-01-22T03:11:46.177Z,0.48
2023-01-22T03:12:46.268Z,0.48
2023-01-22T03:13:46.350Z,0.49
2023-01-22T03:14:46.428Z,0.45
2023-01-22T03:15:46.508Z,0.49
2023-01-22T03:16:46.661Z,0.45
2023-01-22T03:17:46.634Z,0.45
2023-01-22T03:18:46.742Z,0.48
2023-01-22T03:19:46.810Z,0.49
2023-01-22T03:20:46.876Z,0.49
2023-01-22T03:21:46.952Z,0.45
2023-01-22T03:22:47.032Z,0.48
2023-01-22T03:23:47.131Z,0.48
2023-01-22T03:24:47.231Z,0.45
2023-01-22T03:25:47.304Z,0.41
2023-01-22T03:26:47.376Z,0.45
2023-01-22T03:27:47.453Z,0.45
2023-01-22T03:28:47.562Z,0.44
2023-01-22T03:29:47.620Z,0.44
2023-01-22T03:30:47.690Z,0.44
2023-01-22T03:31:47.925Z,0.43
2023-01-22T03:32:47.850Z,0.48
2023-01-22T03:33:47.951Z,0.45
2023-01-22T03:34:48.038Z,0.43
2023-01-22T03:35:48.126Z,0.45
2023-01-22T03:36:48.214Z,0.45
2023-01-22T03:37:48.285Z,0.44
2023-01-22T03:38:48.374Z,0.48
2023-01-22T03:39:48.418Z,0.45
2023-01-22T03:40:48.491Z,0.45
2023-01-22T03:41:48.574Z,0.48
2023-01-22T03:42:48.644Z,0.51
2023-01-22T03:43:48.751Z,0.48
2023-01-22T03:44:48.800Z,0.49
2023-01-22T03:45:48.900Z,0.51
2023-01-22T03:46:48.973Z,0.53
2023-01-22T03:47:49.054Z,0.52
2023-01-22T03:48:49.146Z,0.49
2023-01-22T03:49:49.201Z,0.48
2023-01-22T03:50:49.340Z,0.49
2023-01-22T03:51:49.352Z,0.48
2023-01-22T03:52:49.441Z,0.44
2023-01-22T03:53:49.528Z,0.44
2023-01-22T03:54:49.616Z,0.51
2023-01-22T03:55:49.698Z,0.53
2023-01-22T03:56:49.770Z,0.49
2023-01-22T03:57:49.857Z,0.43
2023-01-22T03:58:49.965Z,0.48
2023-01-22T03:59:50.015Z,0.51
2023-01-22T04:00:50.116Z,0.52
2023-01-22T04:01:50.133Z,0.52
2023-01-22T04:02:50.222Z,0.52
2023-01-22T04:03:50.319Z,0.57
2023-01-22T04:04:50.393Z,0.57
2023-01-22T04:05:50.475Z,0.64
2023-01-22T04:06:50.547Z,0.63
2023-01-22T04:07:50.704Z,0.53
2023-01-22T04:08:50.750Z,0.53
2023-01-22T04:09:50.799Z,0.57
2023-01-22T04:10:50.866Z,0.60
2023-01-22T04:11:50.956Z,0.59
2023-01-22T04:12:51.041Z,0.64
2023-01-22T04:13:51.146Z,0.62
2023-01-22T04:14:51.198Z,0.62
2023-01-22T04:15:51.297Z,0.56
2023-01-22T04:16:51.384Z,0.52
2023-01-22T04:17:51.428Z,0.51
2023-01-22T04:18:51.528Z,0.49
2023-01-22T04:19:51.564Z,0.49
2023-01-22T04:20:51.680Z,0.48
2023-01-22T04:21:51.758Z,0.45
2023-01-22T04:22:51.848Z,0.49
2023-01-22T04:23:51.944Z,0.52
2023-01-22T04:24:52.012Z,0.43
2023-01-22T04:25:52.087Z,0.41
2023-01-22T04:26:52.159Z,0.37
2023-01-22T04:27:52.237Z,0.44
2023-01-22T04:28:52.320Z,0.48
2023-01-22T04:29:52.366Z,0.51
2023-01-22T04:30:52.495Z,0.49
2023-01-22T04:31:52.544Z,0.44
2023-01-22T04:32:52.595Z,0.44
2023-01-22T04:33:52.689Z,0.52
2023-01-22T04:34:52.775Z,0.51
2023-01-22T04:35:52.867Z,0.51
2023-01-22T04:36:52.939Z,0.51
2023-01-22T04:37:53.021Z,0.49
2023-01-22T04:38:53.119Z,0.49
2023-01-22T04:39:53.180Z,0.51
2023-01-22T04:40:53.262Z,0.45
2023-01-22T04:41:53.345Z,0.49
2023-01-22T04:42:53.402Z,0.45
2023-01-22T04:43:53.511Z,0.51
2023-01-22T04:44:53.572Z,0.56
2023-01-22T04:45:53.694Z,0.56
2023-01-22T04:46:53.763Z,0.53
2023-01-22T04:47:53.836Z,0.56
2023-01-22T04:48:53.957Z,0.53
2023-01-22T04:49:54.022Z,0.51
2023-01-22T04:50:54.118Z,0.52
2023-01-22T04:51:54.243Z,0.49
2023-01-22T04:52:54.267Z,0.49
2023-01-22T04:53:54.361Z,0.49
2023-01-22T04:54:54.444Z,0.45
2023-01-22T04:55:54.522Z,0.45
2023-01-22T04:56:54.602Z,0.48
2023-01-22T04:57:54.673Z,0.45
2023-01-22T04:58:54.778Z,0.45
2023-01-22T04:59:54.815Z,0.51
2023-01-22T05:00:54.882Z,0.49
2023-01-22T05:01:54.964Z,0.48
2023-01-22T05:02:55.032Z,0.45
2023-01-22T05:03:55.131Z,0.44
2023-01-22T05:04:55.210Z,0.48
2023-01-22T05:05:55.297Z,0.41
2023-01-22T05:06:55.363Z,0.44
2023-01-22T05:07:55.441Z,0.45
2023-01-22T05:08:55.570Z,0.44
2023-01-22T05:09:55.608Z,0.41
2023-01-22T05:10:55.681Z,0.40
2023-01-22T05:11:55.761Z,0.44
2023-01-22T05:12:55.843Z,0.44
2023-01-22T05:13:55.927Z,0.56
2023-01-22T05:14:56.012Z,0.57
2023-01-22T05:15:56.132Z,0.56
2023-01-22T05:16:56.177Z,0.52
2023-01-22T05:17:56.261Z,0.52
2023-01-22T05:18:56.354Z,0.45
2023-01-22T05:19:56.434Z,0.45
2023-01-22T05:20:56.513Z,0.40
2023-01-22T05:21:56.581Z,0.43
2023-01-22T05:22:56.656Z,0.40
2023-01-22T05:23:56.754Z,0.41
2023-01-22T05:24:56.810Z,0.38
2023-01-22T05:25:56.888Z,0.40
2023-01-22T05:26:56.989Z,0.44
2023-01-22T05:27:57.045Z,0.44
2023-01-22T05:28:57.126Z,0.43
2023-01-22T05:29:57.166Z,0.48
2023-01-22T05:30:57.362Z,0.45
2023-01-22T05:31:57.318Z,0.43
2023-01-22T05:32:57.391Z,0.44
2023-01-22T05:33:57.485Z,0.48
2023-01-22T05:34:57.568Z,0.57
2023-01-22T05:35:57.660Z,0.56
2023-01-22T05:36:57.718Z,0.56
2023-01-22T05:37:57.799Z,0.53
2023-01-22T05:38:57.924Z,0.56
2023-01-22T05:39:57.972Z,0.53
2023-01-22T05:40:58.067Z,0.52
2023-01-22T05:41:58.146Z,0.51
2023-01-22T05:42:58.218Z,0.51
2023-01-22T05:43:58.320Z,0.51
2023-01-22T05:44:58.389Z,0.49
2023-01-22T05:45:58.501Z,0.53
2023-01-22T05:46:58.581Z,0.53
2023-01-22T05:47:58.656Z,0.49
2023-01-22T05:48:58.772Z,0.56
2023-01-22T05:49:58.796Z,0.59
2023-01-22T05:50:58.931Z,0.62
2023-01-22T05:51:58.954Z,0.63
2023-01-22T05:52:59.032Z,0.64
2023-01-22T05:53:59.117Z,0.64
2023-01-22T05:54:59.168Z,0.62
2023-01-22T05:55:59.240Z,0.60
2023-01-22T05:56:59.325Z,0.56
2023-01-22T05:57:59.385Z,0.52
2023-01-22T05:58:59.483Z,0.56
2023-01-22T05:59:59.558Z,0.57
2023-01-22T06:00:59.615Z,0.60
2023-01-22T06:01:59.717Z,0.59
2023-01-22T06:02:59.791Z,0.59
2023-01-22T06:03:59.920Z,0.57
2023-01-22T06:04:59.996Z,0.56
2023-01-22T06:06:00.031Z,0.57
2023-01-22T06:07:00.098Z,0.56
2023-01-22T06:08:00.186Z,0.52
2023-01-22T06:09:00.271Z,0.56
2023-01-22T06:10:00.345Z,0.56
2023-01-22T06:11:00.410Z,0.56
2023-01-22T06:12:00.512Z,0.57
2023-01-22T06:13:00.584Z,0.59
2023-01-22T06:14:00.701Z,0.57
2023-01-22T06:15:00.745Z,0.57
2023-01-22T06:16:00.891Z,0.56
2023-01-22T06:17:00.902Z,0.56
2023-01-22T06:18:00.988Z,0.57
2023-01-22T06:19:01.086Z,0.57
2023-01-22T06:20:01.166Z,0.56
2023-01-22T06:21:01.242Z,0.53
2023-01-22T06:22:01.316Z,0.57
2023-01-22T06:23:01.400Z,0.53
2023-01-22T06:24:01.484Z,0.56
2023-01-22T06:25:01.549Z,0.56
2023-01-22T06:26:01.621Z,0.53
2023-01-22T06:27:01.708Z,0.52
2023-01-22T06:28:01.811Z,0.52
2023-01-22T06:29:01.915Z,0.52
2023-01-22T06:30:01.991Z,0.51
2023-01-22T06:31:02.173Z,0.52
2023-01-22T06:32:02.159Z,0.52
2023-01-22T06:33:02.229Z,0.56
2023-01-22T06:34:02.311Z,0.59
2023-01-22T06:35:02.394Z,0.57
2023-01-22T06:36:02.462Z,0.60
2023-01-22T06:37:02.544Z,0.57
2023-01-22T06:38:02.615Z,0.57
2023-01-22T06:39:02.704Z,0.53
2023-01-22T06:40:02.767Z,0.57
2023-01-22T06:41:02.851Z,0.63
2023-01-22T06:42:02.934Z,0.62
2023-01-22T06:43:03.014Z,0.60
2023-01-22T06:44:03.126Z,0.59
2023-01-22T06:45:03.177Z,0.57
2023-01-22T06:46:03.246Z,0.57
2023-01-22T06:47:03.332Z,0.56
2023-01-22T06:48:03.443Z,0.53
2023-01-22T06:49:03.538Z,0.56
2023-01-22T06:50:03.608Z,0.53
2023-01-22T06:51:03.752Z,0.52
2023-01-22T06:52:03.768Z,0.51
2023-01-22T06:53:03.849Z,0.52
2023-01-22T06:54:03.936Z,0.53
2023-01-22T06:55:03.981Z,0.52
2023-01-22T06:56:04.055Z,0.53
2023-01-22T06:57:04.140Z,0.56
2023-01-22T06:58:04.210Z,0.52
2023-01-22T06:59:04.303Z,0.51
2023-01-22T07:00:04.378Z,0.52
2023-01-22T07:01:04.463Z,0.49
2023-01-22T07:02:04.531Z,0.52
2023-01-22T07:03:04.647Z,0.49
2023-01-22T07:04:08.774Z,0.51
2023-01-22T07:05:04.787Z,0.52
2023-01-22T07:06:04.853Z,0.52
2023-01-22T07:07:04.940Z,0.53
2023-01-22T07:08:05.005Z,0.53
2023-01-22T07:09:05.074Z,0.53
2023-01-22T07:10:05.173Z,0.56
2023-01-22T07:11:07.754Z,0.56
2023-01-22T07:12:05.295Z,0.57
2023-01-22T07:13:05.353Z,0.57
2023-01-22T07:14:05.438Z,0.60
2023-01-22T07:15:05.524Z,0.57
2023-01-22T07:16:05.727Z,0.52
2023-01-22T07:17:05.649Z,0.56
2023-01-22T07:18:05.751Z,0.56
2023-01-22T07:19:05.842Z,0.56
2023-01-22T07:20:05.930Z,0.53
2023-01-22T07:21:05.969Z,0.52
2023-01-22T07:22:06.051Z,0.53
2023-01-22T07:23:06.116Z,0.52
2023-01-22T07:24:06.219Z,0.53
2023-01-22T07:25:06.315Z,0.56
2023-01-22T07:26:06.382Z,0.59
2023-01-22T07:27:06.446Z,0.57
2023-01-22T07:28:06.543Z,0.59
2023-01-22T07:29:06.670Z,0.60
2023-01-22T07:30:06.728Z,0.60
2023-01-22T07:31:06.934Z,0.60
2023-01-22T07:32:06.893Z,0.60
2023-01-22T07:33:06.967Z,0.60
2023-01-22T07:34:07.059Z,0.60
2023-01-22T07:35:07.136Z,0.59
2023-01-22T07:36:07.214Z,0.59
2023-01-22T07:37:07.291Z,0.62
2023-01-22T07:38:07.366Z,0.60
2023-01-22T07:39:07.436Z,0.60
2023-01-22T07:40:07.535Z,0.60
2023-01-22T07:41:17.170Z,0.62
2023-01-22T07:42:07.704Z,0.63
2023-01-22T07:43:07.801Z,0.62
2023-01-22T07:44:07.885Z,0.62
2023-01-22T07:45:07.968Z,0.62
2023-01-22T07:46:08.016Z,0.60
2023-01-22T07:47:08.099Z,0.60
2023-01-22T07:48:08.174Z,0.62
2023-01-22T07:49:08.241Z,0.63
2023-01-22T07:50:08.329Z,0.63
2023-01-22T07:51:08.470Z,0.63
2023-01-22T07:52:08.503Z,0.64
2023-01-22T07:53:08.568Z,0.63
2023-01-22T07:54:08.651Z,0.64
2023-01-22T07:55:08.757Z,0.67
2023-01-22T07:56:08.801Z,0.67
2023-01-22T07:57:08.883Z,0.67
2023-01-22T07:58:08.962Z,0.68
2023-01-22T07:59:09.055Z,0.67
2023-01-22T08:00:09.148Z,0.67
2023-01-22T08:01:09.305Z,0.67
2023-01-22T08:02:09.383Z,0.68
2023-01-22T08:03:09.391Z,0.63
2023-01-22T08:04:09.468Z,0.67
2023-01-22T08:05:09.565Z,0.67
2023-01-22T08:06:09.608Z,0.68
2023-01-22T08:07:09.692Z,0.70
2023-01-22T08:08:09.774Z,0.68
2023-01-22T08:09:09.864Z,0.68
2023-01-22T08:10:09.972Z,0.70
2023-01-22T08:11:10.036Z,0.70
2023-01-22T08:12:10.116Z,0.70
2023-01-22T08:13:10.186Z,0.71
2023-01-22T08:14:10.248Z,0.71
2023-01-22T08:15:10.349Z,0.68
2023-01-22T08:16:10.458Z,0.68
2023-01-22T08:17:10.486Z,0.70
2023-01-22T08:18:10.565Z,0.68
2023-01-22T08:19:10.642Z,0.71
2023-01-22T08:20:10.776Z,0.72
2023-01-22T08:21:10.804Z,0.71
2023-01-22T08:22:10.883Z,0.72
2023-01-22T08:23:10.976Z,0.75
2023-01-22T08:24:11.057Z,0.72
2023-01-22T08:25:11.172Z,0.74
2023-01-22T08:26:11.207Z,0.75
2023-01-22T08:27:11.279Z,0.75
2023-01-22T08:28:11.359Z,0.75
2023-01-22T08:29:11.435Z,0.77
2023-01-22T08:30:11.525Z,0.75
2023-01-22T08:31:26.413Z,0.77
2023-01-22T08:32:11.722Z,0.78
2023-01-22T08:33:11.722Z,0.78
2023-01-22T08:34:11.799Z,0.80
2023-01-22T08:35:13.029Z,0.80
2023-01-22T08:36:11.951Z,0.81
2023-01-22T08:37:12.027Z,0.81
2023-01-22T08:38:12.106Z,0.81
2023-01-22T08:39:12.181Z,0.80
2023-01-22T08:40:12.274Z,0.81
2023-01-22T08:41:12.340Z,0.81
2023-01-22T08:42:12.427Z,0.82
2023-01-22T08:43:12.501Z,0.84
2023-01-22T08:44:12.573Z,0.82
2023-01-22T08:45:12.677Z,0.86
2023-01-22T08:46:12.732Z,0.86
2023-01-22T08:47:12.805Z,0.89
2023-01-22T08:48:12.883Z,0.89
2023-01-22T08:49:12.956Z,0.93
2023-01-22T08:50:13.049Z,0.95
2023-01-22T08:51:13.190Z,0.96
2023-01-22T08:52:13.204Z,0.98
2023-01-22T08:53:13.274Z,0.95
2023-01-22T08:54:13.357Z,0.96
2023-01-22T08:55:13.467Z,0.98
2023-01-22T08:56:13.511Z,0.96
2023-01-22T08:57:13.583Z,0.96
2023-01-22T08:58:13.643Z,0.99
2023-01-22T08:59:13.729Z,1.06
2023-01-22T09:00:13.808Z,1.02
2023-01-22T09:01:13.944Z,1.00
2023-01-22T09:02:14.052Z,1.04
2023-01-22T09:03:14.040Z,1.06
2023-01-22T09:04:14.117Z,1.08
2023-01-22T09:05:14.222Z,1.10
2023-01-22T09:06:14.252Z,1.13
2023-01-22T09:07:14.331Z,1.13
2023-01-22T09:08:14.417Z,1.14
2023-01-22T09:09:14.495Z,1.16
2023-01-22T09:10:14.592Z,1.17
2023-01-22T09:11:14.680Z,1.18
2023-01-22T09:12:14.787Z,1.20
2023-01-22T09:13:14.866Z,1.20
2023-01-22T09:14:14.925Z,1.21
2023-01-22T09:15:15.011Z,1.21
2023-01-22T09:16:15.125Z,1.20
2023-01-22T09:17:15.150Z,1.24
2023-01-22T09:18:15.206Z,1.21
2023-01-22T09:19:15.287Z,1.21
2023-01-22T09:20:15.392Z,1.25
2023-01-22T09:21:15.458Z,1.29
2023-01-22T09:22:15.538Z,1.29
2023-01-22T09:23:15.760Z,1.26
2023-01-22T09:24:15.679Z,1.31
2023-01-22T09:25:15.774Z,1.34
2023-01-22T09:26:15.830Z,1.36
2023-01-22T09:27:15.919Z,1.36
2023-01-22T09:28:15.961Z,1.39
2023-01-22T09:29:16.054Z,1.39
2023-01-22T09:30:16.479Z,1.39
2023-01-22T09:31:16.255Z,1.42
2023-01-22T09:32:16.287Z,1.43
2023-01-22T09:33:16.367Z,1.42
2023-01-22T09:34:16.452Z,1.39
2023-01-22T09:35:16.743Z,1.43
2023-01-22T09:36:16.608Z,1.46
2023-01-22T09:37:16.679Z,1.42
2023-01-22T09:38:16.759Z,1.42
2023-01-22T09:39:16.847Z,1.36
2023-01-22T09:40:17.142Z,1.38
2023-01-22T09:41:17.019Z,1.39
2023-01-22T09:42:17.096Z,1.43
2023-01-22T09:43:17.168Z,1.43
2023-01-22T09:44:17.250Z,1.42
2023-01-22T09:45:17.377Z,1.43
2023-01-22T09:46:17.493Z,1.47
2023-01-22T09:47:17.498Z,1.46
2023-01-22T09:48:17.542Z,1.47
2023-01-22T09:49:17.608Z,1.50
2023-01-22T09:50:18.041Z,1.52
2023-01-22T09:51:17.775Z,1.53
2023-01-22T09:52:17.817Z,1.57
2023-01-22T09:53:17.892Z,1.61
2023-01-22T09:54:17.977Z,1.63
2023-01-22T09:55:18.091Z,1.64
2023-01-22T09:56:18.128Z,1.64
2023-01-22T09:57:30.719Z,1.65
2023-01-22T09:58:18.307Z,1.67
2023-01-22T09:59:18.409Z,1.64
2023-01-22T10:00:18.971Z,1.67
2023-01-22T10:01:18.609Z,1.68
2023-01-22T10:02:18.718Z,1.68
2023-01-22T10:03:18.724Z,1.67
2023-01-22T10:04:18.803Z,1.67
2023-01-22T10:05:18.895Z,1.67
2023-01-22T10:06:18.940Z,1.68
2023-01-22T10:07:19.014Z,1.65
2023-01-22T10:08:19.096Z,1.64
2023-01-22T10:09:19.193Z,1.68
2023-01-22T10:10:19.546Z,1.65
2023-01-22T10:11:19.373Z,1.65
2023-01-22T10:12:19.464Z,1.67
2023-01-22T10:13:19.534Z,1.65
2023-01-22T10:14:19.621Z,1.65
2023-01-22T10:15:19.730Z,1.68
2023-01-22T10:16:19.802Z,1.67
2023-01-22T10:17:19.866Z,1.70
2023-01-22T10:18:19.950Z,1.67
2023-01-22T10:19:20.026Z,1.67
2023-01-22T10:20:20.483Z,1.68
2023-01-22T10:21:20.206Z,1.70
2023-01-22T10:22:20.297Z,1.74
2023-01-22T10:23:20.372Z,1.72
2023-01-22T10:24:20.459Z,1.75
2023-01-22T10:25:20.540Z,1.75
2023-01-22T10:26:20.592Z,1.75
2023-01-22T10:27:20.671Z,1.74
2023-01-22T10:28:20.751Z,1.71
2023-01-22T10:29:20.898Z,1.72
2023-01-22T10:30:21.174Z,1.74
2023-01-22T10:31:22.590Z,1.72
2023-01-22T10:32:21.067Z,1.71
2023-01-22T10:33:21.147Z,1.70
2023-01-22T10:34:21.217Z,1.70
2023-01-22T10:35:21.338Z,1.71
2023-01-22T10:36:21.355Z,1.67
2023-01-22T10:37:21.437Z,1.68
2023-01-22T10:38:21.518Z,1.71
2023-01-22T10:39:21.606Z,1.71
2023-01-22T10:40:21.687Z,1.72
2023-01-22T10:41:21.781Z,1.72
2023-01-22T10:42:21.865Z,1.75
2023-01-22T10:43:21.959Z,1.77
2023-01-22T10:44:22.060Z,1.79
2023-01-22T10:45:22.156Z,1.77
2023-01-22T10:46:22.218Z,1.81
2023-01-22T10:47:22.310Z,1.79
2023-01-22T10:48:22.389Z,1.77
2023-01-22T10:49:22.469Z,1.77
2023-01-22T10:50:22.905Z,1.79
2023-01-22T10:51:22.666Z,1.77
2023-01-22T10:52:22.654Z,1.79
2023-01-22T10:53:22.740Z,1.77
2023-01-22T10:54:22.825Z,1.77
2023-01-22T10:55:22.924Z,1.81
2023-01-22T10:56:22.989Z,1.85
2023-01-22T10:57:23.081Z,1.85
2023-01-22T10:58:23.141Z,1.85
2023-01-22T10:59:23.232Z,1.86
2023-01-22T11:00:23.333Z,1.83
2023-01-22T11:01:23.504Z,1.83
2023-01-22T11:02:23.537Z,1.83
2023-01-22T11:03:23.593Z,1.85
2023-01-22T11:04:23.659Z,1.89
2023-01-22T11:05:23.766Z,1.89
2023-01-22T11:06:23.811Z,1.92
2023-01-22T11:07:23.887Z,1.98
2023-01-22T11:08:23.967Z,2.00
2023-01-22T11:09:24.068Z,2.01
2023-01-22T11:10:24.151Z,2.01
2023-01-22T11:11:24.200Z,2.05
2023-01-22T11:12:24.280Z,2.04
2023-01-22T11:13:24.356Z,2.05
2023-01-22T11:14:24.440Z,2.08
2023-01-22T11:15:24.533Z,2.08
2023-01-22T11:16:24.577Z,2.07
2023-01-22T11:17:24.650Z,2.07
2023-01-22T11:18:24.735Z,2.09
2023-01-22T11:19:36.271Z,2.08
2023-01-22T11:20:24.912Z,2.09
2023-01-22T11:21:24.974Z,2.08
2023-01-22T11:22:25.036Z,2.11
2023-01-22T11:23:25.104Z,2.14
2023-01-22T11:24:25.181Z,2.15
2023-01-22T11:25:25.285Z,2.15
2023-01-22T11:26:25.323Z,2.15
2023-01-22T11:27:25.404Z,2.14
2023-01-22T11:28:25.487Z,2.14
2023-01-22T11:29:25.586Z,2.14
2023-01-22T11:30:26.040Z,2.14
2023-01-22T11:31:25.841Z,2.14
2023-01-22T11:32:25.834Z,2.12
2023-01-22T11:33:25.925Z,2.12
2023-01-22T11:34:26.011Z,2.11
2023-01-22T11:35:26.100Z,2.09
2023-01-22T11:36:26.144Z,2.11
2023-01-22T11:37:26.218Z,2.14
2023-01-22T11:38:26.298Z,2.14
2023-01-22T11:39:26.372Z,2.12
2023-01-22T11:40:26.458Z,2.11
2023-01-22T11:41:26.523Z,2.08
2023-01-22T11:42:26.603Z,2.09
2023-01-22T11:43:26.682Z,2.15
2023-01-22T11:44:26.767Z,2.19
2023-01-22T11:45:26.851Z,2.19
2023-01-22T11:46:26.962Z,2.15
2023-01-22T11:47:26.990Z,2.15
2023-01-22T11:48:27.064Z,2.14
2023-01-22T11:49:27.143Z,2.18
2023-01-22T11:50:27.233Z,2.19
2023-01-22T11:51:27.282Z,2.19
2023-01-22T11:52:27.372Z,2.18
2023-01-22T11:53:27.454Z,2.18
2023-01-22T11:54:27.536Z,2.15
2023-01-22T11:55:27.859Z,2.18
2023-01-22T11:56:27.694Z,2.14
2023-01-22T11:57:27.783Z,2.15
2023-01-22T11:58:27.854Z,2.14
2023-01-22T11:59:28.234Z,2.09
2023-01-22T12:00:28.027Z,2.12
2023-01-22T12:01:28.072Z,2.09
2023-01-22T12:02:28.168Z,2.07
2023-01-22T12:03:28.275Z,2.05
2023-01-22T12:04:28.339Z,2.02
2023-01-22T12:05:30.749Z,2.05
2023-01-22T12:06:28.523Z,2.02
2023-01-22T12:07:28.611Z,2.00
2023-01-22T12:08:28.697Z,2.02
2023-01-22T12:09:28.772Z,2.04
2023-01-22T12:10:28.865Z,2.04
2023-01-22T12:11:28.907Z,2.02
2023-01-22T12:12:28.984Z,2.02
2023-01-22T12:13:29.059Z,2.02
2023-01-22T12:14:29.130Z,2.04
2023-01-22T12:15:29.227Z,2.04
2023-01-22T12:16:29.344Z,2.04
2023-01-22T12:17:29.376Z,2.02
2023-01-22T12:18:29.458Z,2.05
2023-01-22T12:19:29.556Z,2.02
2023-01-22T12:20:29.658Z,2.02
2023-01-22T12:21:29.688Z,2.04
2023-01-22T12:22:29.743Z,2.01
2023-01-22T12:23:29.826Z,2.02
2023-01-22T12:24:29.907Z,2.01
2023-01-22T12:25:30.009Z,2.02
2023-01-22T12:26:30.079Z,2.01
2023-01-22T12:27:30.161Z,2.00
2023-01-22T12:28:30.252Z,1.95
2023-01-22T12:29:30.313Z,2.00
2023-01-22T12:30:30.444Z,1.98
2023-01-22T12:31:30.562Z,2.00
2023-01-22T12:32:30.575Z,2.00
2023-01-22T12:33:30.643Z,2.00
2023-01-22T12:34:30.721Z,2.01
2023-01-22T12:35:30.819Z,2.01
2023-01-22T12:36:30.907Z,2.04
2023-01-22T12:37:30.987Z,2.05
2023-01-22T12:38:31.085Z,2.05
2023-01-22T12:39:31.166Z,2.05
2023-01-22T12:40:31.254Z,2.02
2023-01-22T12:41:31.300Z,2.02
2023-01-22T12:42:31.387Z,2.01
2023-01-22T12:43:31.470Z,2.01
2023-01-22T12:44:31.546Z,2.01
2023-01-22T12:45:31.642Z,1.98
2023-01-22T12:46:31.732Z,1.98
2023-01-22T12:47:31.761Z,2.00
2023-01-22T12:48:31.848Z,2.00
2023-01-22T12:49:31.951Z,2.01
2023-01-22T12:50:32.035Z,2.01
2023-01-22T12:51:32.091Z,1.98
2023-01-22T12:52:32.176Z,1.95
2023-01-22T12:53:32.256Z,1.95
2023-01-22T12:54:32.345Z,1.95
2023-01-22T12:55:32.400Z,1.98
2023-01-22T12:56:32.483Z,1.98
2023-01-22T12:57:32.557Z,1.95
2023-01-22T12:58:32.644Z,1.93
2023-01-22T12:59:32.745Z,1.92
2023-01-22T13:00:32.965Z,1.93
2023-01-22T13:01:32.887Z,1.92
2023-01-22T13:02:32.955Z,1.89
2023-01-22T13:03:33.513Z,1.93
2023-01-22T13:04:33.124Z,1.90
2023-01-22T13:05:33.205Z,1.90
2023-01-22T13:06:33.260Z,1.92
2023-01-22T13:07:33.343Z,1.92
2023-01-22T13:08:33.453Z,1.92
2023-01-22T13:09:33.510Z,1.89
2023-01-22T13:10:33.595Z,1.92
2023-01-22T13:11:33.637Z,1.88
2023-01-22T13:12:33.734Z,1.86
2023-01-22T13:13:33.821Z,1.82
2023-01-22T13:14:33.885Z,1.77
2023-01-22T13:15:33.972Z,1.77
2023-01-22T13:16:34.072Z,1.77
2023-01-22T13:17:34.091Z,1.79
2023-01-22T13:18:34.170Z,1.77
2023-01-22T13:19:34.251Z,1.79